createdAt,value
2022-09-09T00:00:34.504Z,39.68
2022-09-09T00:02:25.564Z,39.62
2022-09-09T00:03:41.341Z,39.54
2022-09-09T00:05:10.332Z,39.53
2022-09-09T00:06:23.289Z,39.53
2022-09-09T00:07:35.333Z,39.51
2022-09-09T00:09:08.616Z,39.50
2022-09-09T00:10:48.761Z,39.40
2022-09-09T00:12:05.040Z,39.38
2022-09-09T00:13:29.941Z,39.38
2022-09-09T00:14:47.899Z,39.36
2022-09-09T00:16:22.117Z,39.33
2022-09-09T00:17:57.625Z,39.26
2022-09-09T00:19:23.226Z,39.27
2022-09-09T00:20:37.968Z,39.24
2022-09-09T00:22:15.556Z,39.22
2022-09-09T00:23:29.914Z,39.23
2022-09-09T00:24:48.143Z,39.19
2022-09-09T00:26:07.011Z,39.18
2022-09-09T00:27:51.798Z,39.14
2022-09-09T00:29:03.192Z,39.02
2022-09-09T00:30:25.444Z,38.93
2022-09-09T00:31:32.221Z,38.93
2022-09-09T00:32:38.485Z,38.89
2022-09-09T00:33:44.664Z,38.86
2022-09-09T00:35:04.693Z,38.82
2022-09-09T00:36:15.314Z,38.74
2022-09-09T00:37:21.745Z,38.66
2022-09-09T00:38:38.213Z,38.63
2022-09-09T00:39:45.418Z,38.60
2022-09-09T00:40:53.454Z,38.61
2022-09-09T00:42:31.676Z,38.52
2022-09-09T00:44:31.998Z,38.39
2022-09-09T00:46:26.904Z,38.24
2022-09-09T00:48:12.847Z,38.12
2022-09-09T00:49:51.045Z,38.06
2022-09-09T00:51:23.994Z,37.97
2022-09-09T00:53:17.136Z,37.87
2022-09-09T00:55:05.822Z,37.78
2022-09-09T00:57:08.433Z,37.71
2022-09-09T00:58:18.021Z,37.60
2022-09-09T00:59:50.550Z,37.53
2022-09-09T01:01:21.042Z,37.44
2022-09-09T01:02:39.122Z,37.32
2022-09-09T01:04:01.974Z,37.23
2022-09-09T01:07:34.017Z,37.10
2022-09-09T01:11:51.128Z,36.82
2022-09-09T01:12:58.030Z,36.77
2022-09-09T01:14:22.824Z,36.74
2022-09-09T01:15:32.642Z,36.69
2022-09-09T01:16:38.471Z,36.65
2022-09-09T01:18:13.262Z,36.61
2022-09-09T01:19:30.606Z,36.55
2022-09-09T01:20:54.449Z,36.51
2022-09-09T01:22:19.898Z,36.46
2022-09-09T01:23:56.549Z,36.42
2022-09-09T01:25:38.646Z,36.35
2022-09-09T01:26:51.567Z,36.26
2022-09-09T01:28:07.082Z,36.21
2022-09-09T01:29:15.135Z,36.18
2022-09-09T01:30:23.959Z,36.13
2022-09-09T01:32:00.578Z,36.07
2022-09-09T01:33:06.915Z,35.99
2022-09-09T01:34:16.966Z,35.94
2022-09-09T01:35:40.083Z,35.89
2022-09-09T01:37:11.715Z,35.82
2022-09-09T01:38:20.544Z,35.76
2022-09-09T01:39:30.593Z,35.71
2022-09-09T01:40:46.705Z,35.64
2022-09-09T01:41:53.727Z,35.58
2022-09-09T01:42:59.523Z,35.54
2022-09-09T01:44:07.349Z,35.52
2022-09-09T01:45:14.992Z,35.48
2022-09-09T01:46:22.353Z,35.43
2022-09-09T01:47:29.822Z,35.39
2022-09-09T01:48:57.491Z,35.31
2022-09-09T01:50:06.413Z,35.25
2022-09-09T01:51:13.865Z,35.19
2022-09-09T01:52:23.067Z,35.16
2022-09-09T01:53:29.257Z,35.10
2022-09-09T01:54:36.114Z,35.05
2022-09-09T01:55:50.886Z,35.00
2022-09-09T01:57:07.590Z,34.93
2022-09-09T01:59:02.536Z,34.87
2022-09-09T02:00:14.964Z,34.76
2022-09-09T02:03:27.861Z,34.58
2022-09-09T02:05:00.291Z,34.51
2022-09-09T02:13:45.139Z,34.14
2022-09-09T02:16:05.882Z,34.04
2022-09-09T02:20:35.006Z,33.83
2022-09-09T02:22:44.176Z,33.71
2022-09-09T02:27:09.418Z,33.58
2022-09-09T02:28:27.942Z,33.51
2022-09-09T02:29:56.475Z,33.46
2022-09-09T02:31:21.427Z,33.41
2022-09-09T02:32:28.912Z,33.38
2022-09-09T02:33:39.128Z,33.35
2022-09-09T02:34:47.396Z,33.32
2022-09-09T02:35:54.228Z,33.29
2022-09-09T02:37:01.863Z,33.26
2022-09-09T02:38:10.995Z,33.22
2022-09-09T02:39:17.878Z,33.19
2022-09-09T02:40:24.133Z,33.17
2022-09-09T02:41:59.076Z,33.13
2022-09-09T02:43:50.366Z,33.07
2022-09-09T02:45:03.732Z,33.01
2022-09-09T02:47:09.430Z,32.97
2022-09-09T02:52:01.912Z,32.78
2022-09-09T02:53:24.286Z,32.71
2022-09-09T02:55:07.116Z,32.67
2022-09-09T02:56:34.667Z,32.62
2022-09-09T02:57:42.284Z,32.58
2022-09-09T02:58:51.094Z,32.56
2022-09-09T03:00:00.003Z,32.55
2022-09-09T03:01:07.162Z,32.51
2022-09-09T03:02:14.720Z,32.48
2022-09-09T03:03:22.105Z,32.46
2022-09-09T03:04:29.065Z,32.44
2022-09-09T03:05:38.344Z,32.42
2022-09-09T03:06:45.340Z,32.39
2022-09-09T03:08:00.783Z,32.36
2022-09-09T03:09:09.892Z,32.33
2022-09-09T03:10:19.036Z,32.29
2022-09-09T03:11:27.251Z,32.27
2022-09-09T03:12:35.540Z,32.23
2022-09-09T03:13:44.648Z,32.21
2022-09-09T03:14:54.059Z,32.16
2022-09-09T03:16:02.707Z,32.12
2022-09-09T03:17:28.898Z,32.09
2022-09-09T03:27:11.036Z,31.79
2022-09-09T03:28:21.158Z,31.78
2022-09-09T03:29:37.577Z,31.76
2022-09-09T03:31:14.356Z,31.75
2022-09-09T03:34:44.784Z,31.71
2022-09-09T03:35:58.250Z,31.70
2022-09-09T03:37:04.766Z,31.68
2022-09-09T03:38:18.154Z,31.66
2022-09-09T03:39:28.546Z,31.64
2022-09-09T03:42:21.593Z,31.59
2022-09-09T03:45:26.079Z,31.55
2022-09-09T03:46:36.257Z,31.55
2022-09-09T03:47:44.728Z,31.55
2022-09-09T03:48:52.960Z,31.54
2022-09-09T03:50:02.383Z,31.54
2022-09-09T03:51:10.022Z,31.54
2022-09-09T03:52:25.440Z,31.53
2022-09-09T03:53:48.288Z,31.53
2022-09-09T03:55:11.598Z,31.52
2022-09-09T03:56:25.931Z,31.50
2022-09-09T03:57:32.838Z,31.47
2022-09-09T03:58:40.654Z,31.46
2022-09-09T03:59:48.179Z,31.45
2022-09-09T04:00:59.371Z,31.43
2022-09-09T04:02:11.926Z,31.42
2022-09-09T04:03:27.645Z,31.40
2022-09-09T04:04:38.212Z,31.38
2022-09-09T04:05:44.504Z,31.37
2022-09-09T04:06:51.305Z,31.34
2022-09-09T04:07:58.007Z,31.36
2022-09-09T04:09:05.262Z,31.37
2022-09-09T04:10:12.767Z,31.37
2022-09-09T04:11:20.045Z,31.37
2022-09-09T04:12:27.506Z,31.37
2022-09-09T04:13:37.698Z,31.37
2022-09-09T04:14:46.668Z,31.36
2022-09-09T04:15:59.048Z,31.36
2022-09-09T04:17:09.275Z,31.34
2022-09-09T04:18:25.858Z,31.33
2022-09-09T04:19:34.385Z,31.32
2022-09-09T04:20:50.891Z,31.31
2022-09-09T04:22:36.911Z,31.29
2022-09-09T04:24:15.523Z,31.28
2022-09-09T04:25:25.157Z,31.27
2022-09-09T04:30:01.124Z,31.20
2022-09-09T04:31:13.193Z,31.19
2022-09-09T04:32:24.742Z,31.18
2022-09-09T04:33:35.993Z,31.16
2022-09-09T04:34:46.930Z,31.15
2022-09-09T04:35:55.541Z,31.14
2022-09-09T04:37:07.796Z,31.12
2022-09-09T04:38:15.177Z,31.09
2022-09-09T04:39:22.066Z,31.08
2022-09-09T04:40:31.183Z,31.06
2022-09-09T04:41:37.355Z,31.05
2022-09-09T04:42:45.613Z,31.02
2022-09-09T04:43:54.405Z,30.98
2022-09-09T04:45:01.661Z,30.93
2022-09-09T04:46:10.228Z,30.88
2022-09-09T04:47:16.964Z,30.83
2022-09-09T04:48:26.155Z,30.78
2022-09-09T04:49:33.416Z,30.72
2022-09-09T04:50:40.374Z,30.67
2022-09-09T04:51:49.024Z,30.62
2022-09-09T04:52:57.080Z,30.56
2022-09-09T04:54:10.407Z,30.52
2022-09-09T04:55:19.297Z,30.46
2022-09-09T04:56:31.765Z,30.41
2022-09-09T04:57:42.626Z,30.36
2022-09-09T04:58:53.021Z,30.31
2022-09-09T05:00:07.531Z,30.27
2022-09-09T05:01:27.472Z,30.25
2022-09-09T05:02:45.035Z,30.21
2022-09-09T05:03:56.107Z,30.18
2022-09-09T05:05:03.691Z,30.14
2022-09-09T05:06:19.706Z,30.11
2022-09-09T05:07:30.742Z,30.07
2022-09-09T05:08:42.402Z,30.03
2022-09-09T05:09:51.456Z,29.98
2022-09-09T05:11:01.067Z,29.94
2022-09-09T05:12:09.939Z,29.91
2022-09-09T05:13:23.103Z,29.88
2022-09-09T05:14:33.356Z,29.86
2022-09-09T05:15:41.987Z,29.85
2022-09-09T05:16:49.458Z,29.83
2022-09-09T05:17:58.740Z,29.80
2022-09-09T05:19:09.924Z,29.78
2022-09-09T05:20:25.427Z,29.75
2022-09-09T05:21:33.163Z,29.73
2022-09-09T05:22:39.371Z,29.72
2022-09-09T05:23:48.236Z,29.70
2022-09-09T05:24:58.377Z,29.68
2022-09-09T05:26:06.064Z,29.67
2022-09-09T05:27:14.648Z,29.66
2022-09-09T05:28:21.683Z,29.64
2022-09-09T05:29:29.743Z,29.62
2022-09-09T05:30:38.823Z,29.58
2022-09-09T05:31:49.784Z,29.54
2022-09-09T05:33:03.192Z,29.51
2022-09-09T05:34:21.670Z,29.49
2022-09-09T05:35:43.682Z,29.47
2022-09-09T05:36:49.442Z,29.45
2022-09-09T05:37:57.773Z,29.44
2022-09-09T05:39:06.618Z,29.44
2022-09-09T05:40:12.895Z,29.43
2022-09-09T05:41:19.113Z,29.43
2022-09-09T05:42:25.256Z,29.44
2022-09-09T05:43:33.382Z,29.44
2022-09-09T05:44:40.243Z,29.44
2022-09-09T05:45:50.419Z,29.42
2022-09-09T05:47:02.879Z,29.41
2022-09-09T05:48:16.248Z,29.38
2022-09-09T05:49:42.063Z,29.34
2022-09-09T05:50:58.751Z,29.32
2022-09-09T05:52:06.612Z,29.29
2022-09-09T05:53:15.360Z,29.28
2022-09-09T05:54:22.180Z,29.29
2022-09-09T05:55:33.097Z,29.30
2022-09-09T05:56:40.693Z,29.30
2022-09-09T05:57:51.236Z,29.30
2022-09-09T05:58:57.737Z,29.30
2022-09-09T06:00:04.535Z,29.31
2022-09-09T06:01:33.267Z,29.31
2022-09-09T06:02:40.505Z,29.32
2022-09-09T06:03:51.124Z,29.32
2022-09-09T06:05:00.562Z,29.33
2022-09-09T06:06:11.073Z,29.35
2022-09-09T06:07:16.942Z,29.36
2022-09-09T06:08:24.477Z,29.36
2022-09-09T06:09:31.892Z,29.38
2022-09-09T06:10:40.636Z,29.40
2022-09-09T06:11:48.235Z,29.41
2022-09-09T06:12:56.446Z,29.42
2022-09-09T06:14:03.789Z,29.42
2022-09-09T06:15:11.026Z,29.43
2022-09-09T06:16:19.841Z,29.44
2022-09-09T06:17:27.884Z,29.45
2022-09-09T06:18:33.753Z,29.45
2022-09-09T06:19:40.662Z,29.44
2022-09-09T06:21:01.135Z,29.44
2022-09-09T06:22:08.361Z,29.43
2022-09-09T06:23:16.141Z,29.43
2022-09-09T06:24:24.188Z,29.43
2022-09-09T06:25:31.537Z,29.44
2022-09-09T06:26:44.672Z,29.45
2022-09-09T06:27:53.982Z,29.47
2022-09-09T06:29:15.833Z,29.50
2022-09-09T06:30:23.123Z,29.52
2022-09-09T06:31:33.041Z,29.55
2022-09-09T06:32:41.070Z,29.57
2022-09-09T06:33:48.371Z,29.58
2022-09-09T06:34:57.549Z,29.60
2022-09-09T06:36:06.794Z,29.63
2022-09-09T06:37:15.570Z,29.66
2022-09-09T06:38:26.812Z,29.68
2022-09-09T06:39:32.750Z,29.69
2022-09-09T06:40:38.786Z,29.71
2022-09-09T06:41:46.071Z,29.72
2022-09-09T06:43:16.428Z,29.73
2022-09-09T06:44:31.126Z,29.73
2022-09-09T06:45:41.436Z,29.72
2022-09-09T06:46:50.626Z,29.72
2022-09-09T06:47:58.171Z,29.72
2022-09-09T06:49:05.015Z,29.74
2022-09-09T06:50:13.040Z,29.75
2022-09-09T06:51:25.180Z,29.76
2022-09-09T06:52:32.819Z,29.76
2022-09-09T06:53:40.209Z,29.76
2022-09-09T06:54:48.058Z,29.75
2022-09-09T06:55:56.401Z,29.74
2022-09-09T06:57:20.915Z,29.74
2022-09-09T06:58:32.848Z,29.72
2022-09-09T06:59:39.270Z,29.70
2022-09-09T07:00:45.342Z,29.68
2022-09-09T07:01:56.037Z,29.65
2022-09-09T07:03:03.668Z,29.61
2022-09-09T07:04:11.149Z,29.58
2022-09-09T07:05:19.451Z,29.55
2022-09-09T07:06:35.803Z,29.52
2022-09-09T07:07:43.531Z,29.50
2022-09-09T07:09:00.676Z,29.48
2022-09-09T07:10:07.100Z,29.45
2022-09-09T07:11:14.098Z,29.42
2022-09-09T07:12:20.809Z,29.38
2022-09-09T07:13:33.871Z,29.35
2022-09-09T07:14:41.531Z,29.32
2022-09-09T07:15:47.970Z,29.30
2022-09-09T07:16:57.598Z,29.29
2022-09-09T07:18:06.503Z,29.30
2022-09-09T07:19:16.349Z,29.32
2022-09-09T07:20:22.482Z,29.36
2022-09-09T07:21:30.026Z,29.39
2022-09-09T07:22:36.185Z,29.39
2022-09-09T07:23:42.656Z,29.38
2022-09-09T07:24:48.603Z,29.37
2022-09-09T07:25:54.771Z,29.37
2022-09-09T07:27:01.419Z,29.36
2022-09-09T07:28:09.101Z,29.35
2022-09-09T07:29:20.543Z,29.35
2022-09-09T07:30:28.902Z,29.35
2022-09-09T07:31:41.976Z,29.34
2022-09-09T07:32:54.646Z,29.35
2022-09-09T07:34:01.778Z,29.36
2022-09-09T07:35:09.322Z,29.36
2022-09-09T07:36:28.902Z,29.33
2022-09-09T07:37:40.642Z,29.30
2022-09-09T07:38:49.624Z,29.28
2022-09-09T07:39:57.195Z,29.27
2022-09-09T07:41:14.082Z,29.27
2022-09-09T07:42:22.069Z,29.23
2022-09-09T07:43:30.478Z,29.21
2022-09-09T07:44:37.210Z,29.19
2022-09-09T07:45:48.194Z,29.17
2022-09-09T07:46:56.835Z,29.17
2022-09-09T07:48:07.147Z,29.15
2022-09-09T07:49:13.535Z,29.13
2022-09-09T07:50:19.727Z,29.12
2022-09-09T07:51:28.343Z,29.11
2022-09-09T07:52:35.355Z,29.11
2022-09-09T07:53:45.626Z,29.10
2022-09-09T07:54:51.129Z,29.08
2022-09-09T07:56:06.201Z,29.06
2022-09-09T07:57:12.170Z,29.04
2022-09-09T07:58:19.481Z,29.04
2022-09-09T07:59:26.058Z,29.03
2022-09-09T08:00:32.444Z,29.03
2022-09-09T08:01:42.497Z,29.01
2022-09-09T08:02:49.534Z,28.99
2022-09-09T08:04:02.811Z,28.98
2022-09-09T08:05:10.678Z,28.98
2022-09-09T08:06:16.961Z,29.02
2022-09-09T08:07:23.289Z,29.05
2022-09-09T08:08:34.056Z,29.06
2022-09-09T08:09:41.759Z,29.04
2022-09-09T08:10:54.524Z,29.03
2022-09-09T08:12:01.461Z,29.03
2022-09-09T08:13:17.834Z,29.02
2022-09-09T08:14:25.522Z,29.00
2022-09-09T08:15:35.962Z,29.00
2022-09-09T08:16:47.007Z,29.00
2022-09-09T08:17:55.743Z,29.02
2022-09-09T08:19:26.680Z,29.03
2022-09-09T08:20:32.824Z,29.03
2022-09-09T08:21:40.581Z,29.01
2022-09-09T08:22:46.847Z,28.99
2022-09-09T08:23:57.848Z,28.97
2022-09-09T08:25:08.043Z,28.96
2022-09-09T08:26:16.317Z,28.95
2022-09-09T08:27:25.366Z,28.94
2022-09-09T08:28:32.655Z,28.93
2022-09-09T08:29:40.060Z,28.93
2022-09-09T08:30:50.127Z,28.93
2022-09-09T08:31:59.223Z,28.92
2022-09-09T08:33:07.308Z,28.90
2022-09-09T08:34:16.138Z,28.86
2022-09-09T08:35:22.879Z,28.84
2022-09-09T08:36:30.635Z,28.81
2022-09-09T08:37:36.525Z,28.75
2022-09-09T08:38:45.373Z,28.69
2022-09-09T08:39:54.546Z,28.64
2022-09-09T08:41:08.056Z,28.61
2022-09-09T08:42:41.206Z,28.59
2022-09-09T08:43:49.761Z,28.58
2022-09-09T08:45:21.381Z,28.58
2022-09-09T08:46:38.894Z,28.53
2022-09-09T08:48:08.913Z,28.47
2022-09-09T08:49:29.671Z,28.43
2022-09-09T08:50:40.043Z,28.38
2022-09-09T08:51:56.855Z,28.34
2022-09-09T08:53:26.496Z,28.35
2022-09-09T08:54:51.703Z,28.47
2022-09-09T08:56:05.449Z,28.52
2022-09-09T08:57:22.701Z,28.51
2022-09-09T08:58:33.635Z,28.55
2022-09-09T08:59:44.571Z,28.63
2022-09-09T09:01:10.387Z,28.67
2022-09-09T09:02:51.338Z,28.71
2022-09-09T09:04:03.789Z,28.72
2022-09-09T09:05:38.216Z,28.74
2022-09-09T09:07:11.790Z,28.77
2022-09-09T09:08:53.606Z,28.86
2022-09-09T09:10:24.343Z,28.90
2022-09-09T09:11:44.607Z,28.90
2022-09-09T09:12:50.648Z,28.86
2022-09-09T09:14:21.064Z,28.83
2022-09-09T09:15:30.752Z,28.82
2022-09-09T09:16:45.687Z,28.86
2022-09-09T09:17:52.215Z,28.91
2022-09-09T09:18:59.487Z,28.93
2022-09-09T09:20:08.547Z,28.92
2022-09-09T09:21:55.314Z,28.90
2022-09-09T09:23:01.845Z,28.86
2022-09-09T09:24:24.993Z,28.86
2022-09-09T09:25:37.553Z,28.83
2022-09-09T09:26:44.155Z,28.81
2022-09-09T09:28:13.100Z,28.80
2022-09-09T09:29:21.249Z,28.78
2022-09-09T09:30:33.061Z,28.77
2022-09-09T09:31:56.324Z,28.78
2022-09-09T09:33:04.992Z,28.83
2022-09-09T09:34:13.651Z,28.88
2022-09-09T09:35:20.018Z,28.92
2022-09-09T09:36:35.241Z,28.96
2022-09-09T09:40:50.194Z,28.97
2022-09-09T09:41:59.188Z,28.98
2022-09-09T09:43:10.229Z,28.99
2022-09-09T09:44:30.265Z,28.98
2022-09-09T09:46:06.838Z,28.97
2022-09-09T09:47:17.901Z,28.97
2022-09-09T09:48:30.959Z,28.96
2022-09-09T09:49:38.746Z,28.96
2022-09-09T09:50:54.535Z,28.96
2022-09-09T09:52:09.493Z,28.96
2022-09-09T09:53:29.406Z,28.96
2022-09-09T09:54:41.377Z,28.96
2022-09-09T09:56:11.762Z,28.97
2022-09-09T09:57:18.575Z,28.97
2022-09-09T09:58:48.239Z,29.03
2022-09-09T10:00:27.462Z,29.05
2022-09-09T10:01:39.286Z,29.01
2022-09-09T10:02:49.633Z,28.97
2022-09-09T10:04:18.611Z,28.91
2022-09-09T10:05:36.315Z,28.84
2022-09-09T10:06:48.451Z,28.77
2022-09-09T10:08:25.807Z,28.71
2022-09-09T10:09:36.277Z,28.63
2022-09-09T10:10:50.837Z,28.58
2022-09-09T10:12:32.087Z,28.54
2022-09-09T10:14:17.120Z,28.49
2022-09-09T10:15:52.323Z,28.47
2022-09-09T10:17:06.327Z,28.45
2022-09-09T10:18:27.689Z,28.43
2022-09-09T10:19:39.822Z,28.42
2022-09-09T10:21:10.842Z,28.43
2022-09-09T10:22:35.646Z,28.44
2022-09-09T10:23:50.081Z,28.45
2022-09-09T10:25:14.689Z,28.47
2022-09-09T10:26:32.220Z,28.46
2022-09-09T10:27:59.746Z,28.43
2022-09-09T10:29:33.086Z,28.36
2022-09-09T10:31:11.542Z,28.29
2022-09-09T10:32:46.233Z,28.22
2022-09-09T10:34:08.858Z,28.18
2022-09-09T10:35:39.021Z,28.15
2022-09-09T10:36:51.182Z,28.13
2022-09-09T10:38:15.726Z,28.11
2022-09-09T10:39:43.303Z,28.08
2022-09-09T10:40:57.547Z,28.05
2022-09-09T10:42:15.968Z,28.05
2022-09-09T10:44:00.277Z,28.06
2022-09-09T10:45:12.458Z,28.06
2022-09-09T10:46:40.901Z,28.07
2022-09-09T10:48:08.868Z,28.07
2022-09-09T10:49:52.017Z,28.06
2022-09-09T10:51:32.834Z,28.04
2022-09-09T10:53:03.926Z,28.01
2022-09-09T10:54:33.496Z,27.98
2022-09-09T10:55:51.593Z,27.94
2022-09-09T10:57:00.980Z,27.92
2022-09-09T10:58:06.852Z,27.93
2022-09-09T10:59:22.669Z,27.94
2022-09-09T11:00:39.216Z,27.95
2022-09-09T11:02:04.958Z,27.96
2022-09-09T11:03:22.200Z,27.98
2022-09-09T11:04:52.763Z,28.01
2022-09-09T11:06:12.585Z,28.05
2022-09-09T11:07:43.295Z,28.07
2022-09-09T11:08:53.865Z,28.06
2022-09-09T11:10:08.656Z,28.04
2022-09-09T11:11:23.798Z,28.02
2022-09-09T11:12:31.095Z,28.00
2022-09-09T11:13:58.428Z,27.96
2022-09-09T11:15:08.814Z,27.92
2022-09-09T11:16:49.953Z,27.86
2022-09-09T11:18:00.411Z,27.80
2022-09-09T11:19:07.706Z,27.74
2022-09-09T11:20:14.442Z,27.69
2022-09-09T11:21:43.673Z,27.65
2022-09-09T11:23:13.227Z,27.60
2022-09-09T11:24:29.696Z,27.55
2022-09-09T11:25:41.599Z,27.52
2022-09-09T11:26:56.289Z,27.48
2022-09-09T11:28:21.439Z,27.43
2022-09-09T11:30:04.547Z,27.38
2022-09-09T11:31:48.213Z,27.32
2022-09-09T11:33:35.637Z,27.28
2022-09-09T11:34:59.878Z,27.24
2022-09-09T11:36:32.650Z,27.19
2022-09-09T11:38:08.233Z,27.14
2022-09-09T11:39:33.440Z,27.09
2022-09-09T11:40:43.582Z,27.06
2022-09-09T11:41:51.215Z,27.04
2022-09-09T11:43:27.272Z,27.04
2022-09-09T11:44:33.900Z,27.11
2022-09-09T11:45:40.543Z,27.17
2022-09-09T11:46:47.612Z,27.21
2022-09-09T11:47:56.697Z,27.24
2022-09-09T11:49:06.919Z,27.27
2022-09-09T11:50:36.468Z,27.29
2022-09-09T11:51:42.305Z,27.32
2022-09-09T11:52:53.693Z,27.35
2022-09-09T11:54:40.837Z,27.36
2022-09-09T11:55:47.076Z,27.37
2022-09-09T11:56:55.641Z,27.38
2022-09-09T11:58:06.096Z,27.37
2022-09-09T11:59:35.355Z,27.41
2022-09-09T12:00:50.671Z,27.46
2022-09-09T12:02:05.653Z,27.48
2022-09-09T12:03:36.717Z,27.52
2022-09-09T12:04:47.253Z,27.59
2022-09-09T12:05:53.580Z,27.60
2022-09-09T12:07:31.011Z,27.63
2022-09-09T12:08:38.615Z,27.75
2022-09-09T12:09:47.708Z,27.86
2022-09-09T12:11:06.572Z,27.97
2022-09-09T12:12:16.003Z,28.09
2022-09-09T12:13:25.029Z,28.22
2022-09-09T12:14:41.008Z,28.32
2022-09-09T12:15:53.990Z,28.43
2022-09-09T12:17:01.242Z,28.56
2022-09-09T12:18:07.031Z,28.65
2022-09-09T12:19:16.281Z,28.75
2022-09-09T12:20:40.410Z,28.84
2022-09-09T12:22:17.722Z,28.91
2022-09-09T12:23:44.871Z,28.96
2022-09-09T12:24:57.486Z,29.02
2022-09-09T12:26:23.597Z,29.02
2022-09-09T12:28:04.539Z,29.04
2022-09-09T12:29:33.628Z,29.04
2022-09-09T12:31:10.744Z,29.04
2022-09-09T12:32:22.430Z,29.04
2022-09-09T12:33:29.494Z,29.03
2022-09-09T12:34:45.382Z,29.03
2022-09-09T12:36:01.019Z,29.03
2022-09-09T12:37:14.489Z,29.03
2022-09-09T12:38:44.386Z,29.02
2022-09-09T12:39:59.311Z,29.02
2022-09-09T12:41:05.808Z,29.00
2022-09-09T12:42:24.994Z,29.00
2022-09-09T12:43:31.951Z,29.01
2022-09-09T12:44:41.904Z,29.00
2022-09-09T12:45:49.586Z,28.98
2022-09-09T12:47:01.224Z,28.97
2022-09-09T12:48:09.473Z,28.96
2022-09-09T12:49:36.222Z,28.95
2022-09-09T12:50:48.348Z,28.95
2022-09-09T12:51:59.131Z,28.97
2022-09-09T12:53:32.339Z,28.97
2022-09-09T12:54:39.002Z,28.95
2022-09-09T12:55:52.926Z,28.98
2022-09-09T12:57:00.841Z,29.01
2022-09-09T12:58:08.411Z,29.02
2022-09-09T12:59:40.742Z,29.02
2022-09-09T13:01:00.027Z,29.03
2022-09-09T13:02:25.838Z,29.03
2022-09-09T13:03:33.495Z,29.02
2022-09-09T13:04:40.021Z,29.02
2022-09-09T13:05:48.764Z,29.03
2022-09-09T13:06:55.507Z,29.00
2022-09-09T13:08:08.750Z,28.96
2022-09-09T13:10:36.711Z,28.92
2022-09-09T13:11:57.997Z,28.88
2022-09-09T13:13:05.593Z,28.86
2022-09-09T13:14:29.661Z,28.86
2022-09-09T13:15:36.790Z,28.83
2022-09-09T13:16:44.157Z,28.81
2022-09-09T13:18:02.254Z,28.77
2022-09-09T13:19:17.783Z,28.74
2022-09-09T13:20:23.351Z,28.71
2022-09-09T13:21:38.808Z,28.66
2022-09-09T13:22:45.947Z,28.62
2022-09-09T13:23:53.718Z,28.60
2022-09-09T13:25:45.904Z,28.58
2022-09-09T13:27:04.643Z,28.55
2022-09-09T13:28:26.698Z,28.54
2022-09-09T13:29:36.446Z,28.50
2022-09-09T13:30:45.049Z,28.46
2022-09-09T13:31:54.666Z,28.41
2022-09-09T13:33:04.436Z,28.36
2022-09-09T13:34:39.289Z,28.31
2022-09-09T13:36:14.684Z,28.24
2022-09-09T13:37:42.711Z,28.16
2022-09-09T13:39:01.814Z,28.09
2022-09-09T13:40:08.237Z,28.02
2022-09-09T13:41:14.381Z,27.98
2022-09-09T13:42:32.780Z,27.95
2022-09-09T13:43:51.284Z,27.93
2022-09-09T13:45:00.134Z,27.92
2022-09-09T13:46:33.179Z,27.90
2022-09-09T13:47:39.343Z,27.89
2022-09-09T13:48:56.123Z,27.89
2022-09-09T13:50:25.666Z,27.91
2022-09-09T13:51:53.992Z,27.92
2022-09-09T13:53:01.602Z,27.95
2022-09-09T13:54:08.412Z,27.99
2022-09-09T13:55:14.913Z,28.01
2022-09-09T13:56:22.230Z,28.02
2022-09-09T13:57:29.542Z,28.05
2022-09-09T13:58:37.639Z,28.06
2022-09-09T14:00:03.608Z,28.09
2022-09-09T14:01:13.172Z,28.11
2022-09-09T14:02:20.540Z,28.14
2022-09-09T14:03:29.798Z,28.18
2022-09-09T14:04:36.611Z,28.21
2022-09-09T14:05:42.342Z,28.23
2022-09-09T14:06:49.382Z,28.24
2022-09-09T14:07:55.034Z,28.25
2022-09-09T14:09:01.829Z,28.25
2022-09-09T14:10:08.997Z,28.27
2022-09-09T14:11:15.773Z,28.28
2022-09-09T14:12:22.311Z,28.30
2022-09-09T14:13:30.956Z,28.33
2022-09-09T14:14:36.871Z,28.35
2022-09-09T14:15:43.094Z,28.36
2022-09-09T14:16:50.447Z,28.37
2022-09-09T14:17:56.456Z,28.39
2022-09-09T14:19:03.107Z,28.40
2022-09-09T14:20:10.236Z,28.42
2022-09-09T14:21:17.801Z,28.43
2022-09-09T14:22:25.428Z,28.43
2022-09-09T14:23:33.876Z,28.44
2022-09-09T14:24:42.464Z,28.46
2022-09-09T14:25:50.919Z,28.47
2022-09-09T14:26:58.702Z,28.51
2022-09-09T14:28:06.489Z,28.53
2022-09-09T14:29:13.181Z,28.54
2022-09-09T14:30:19.619Z,28.56
2022-09-09T14:31:27.305Z,28.59
2022-09-09T14:32:36.758Z,28.62
2022-09-09T14:33:45.941Z,28.64
2022-09-09T14:34:52.664Z,28.70
2022-09-09T14:36:02.330Z,28.75
2022-09-09T14:37:11.380Z,28.83
2022-09-09T14:38:19.229Z,28.88
2022-09-09T14:39:25.337Z,28.95
2022-09-09T14:40:31.468Z,29.00
2022-09-09T14:41:37.310Z,29.06
2022-09-09T14:42:43.397Z,29.10
2022-09-09T14:43:49.681Z,29.15
2022-09-09T14:44:56.708Z,29.19
2022-09-09T14:46:16.886Z,29.22
2022-09-09T14:47:24.815Z,29.24
2022-09-09T14:48:32.835Z,29.27
2022-09-09T14:49:42.574Z,29.31
2022-09-09T14:50:52.428Z,29.35
2022-09-09T14:51:58.938Z,29.38
2022-09-09T14:53:06.768Z,29.42
2022-09-09T14:54:12.874Z,29.44
2022-09-09T14:55:28.120Z,29.46
2022-09-09T14:56:41.237Z,29.49
2022-09-09T14:57:51.252Z,29.51
2022-09-09T14:58:58.867Z,29.56
2022-09-09T15:00:07.116Z,29.58
2022-09-09T15:01:18.439Z,29.59
2022-09-09T15:02:27.997Z,29.61
2022-09-09T15:03:36.571Z,29.62
2022-09-09T15:04:43.912Z,29.67
2022-09-09T15:05:53.902Z,29.70
2022-09-09T15:07:02.179Z,29.71
2022-09-09T15:08:09.016Z,29.78
2022-09-09T15:09:15.442Z,29.84
2022-09-09T15:10:22.062Z,29.87
2022-09-09T15:11:39.733Z,29.88
2022-09-09T15:12:45.976Z,29.89
2022-09-09T15:13:57.094Z,29.90
2022-09-09T15:15:08.618Z,29.89
2022-09-09T15:16:21.234Z,29.90
2022-09-09T15:17:30.978Z,29.92
2022-09-09T15:18:50.832Z,29.91
2022-09-09T15:19:59.466Z,29.90
2022-09-09T15:21:07.398Z,29.88
2022-09-09T15:22:16.829Z,29.84
2022-09-09T15:23:26.851Z,29.80
2022-09-09T15:24:34.016Z,29.80
2022-09-09T15:25:40.653Z,29.79
2022-09-09T15:26:48.015Z,29.80
2022-09-09T15:27:56.257Z,29.82
2022-09-09T15:29:05.145Z,29.85
2022-09-09T15:30:25.080Z,29.87
2022-09-09T15:31:34.077Z,29.86
2022-09-09T15:32:41.481Z,29.87
2022-09-09T15:34:04.047Z,29.90
2022-09-09T15:35:12.434Z,29.95
2022-09-09T15:36:24.306Z,30.00
2022-09-09T15:37:33.754Z,30.07
2022-09-09T15:38:43.694Z,30.12
2022-09-09T15:39:51.119Z,30.17
2022-09-09T15:41:06.831Z,30.18
2022-09-09T15:42:20.076Z,30.23
2022-09-09T15:43:30.429Z,30.33
2022-09-09T15:44:45.735Z,30.38
2022-09-09T15:45:59.079Z,30.41
2022-09-09T15:47:07.746Z,30.46
2022-09-09T15:48:18.221Z,30.53
2022-09-09T15:49:27.249Z,30.57
2022-09-09T15:50:34.629Z,30.67
2022-09-09T15:51:48.944Z,30.76
2022-09-09T15:52:55.970Z,30.86
2022-09-09T15:54:08.845Z,30.94
2022-09-09T15:55:31.799Z,30.98
2022-09-09T15:56:39.305Z,31.04
2022-09-09T15:57:48.322Z,31.12
2022-09-09T15:58:56.186Z,31.19
2022-09-09T16:00:07.584Z,31.26
2022-09-09T16:01:19.058Z,31.32
2022-09-09T16:02:27.328Z,31.39
2022-09-09T16:03:40.763Z,31.47
2022-09-09T16:04:48.881Z,31.52
2022-09-09T16:06:26.056Z,31.57
2022-09-09T16:07:41.076Z,31.66
2022-09-09T16:08:49.470Z,31.73
2022-09-09T16:09:57.523Z,31.82
2022-09-09T16:11:21.769Z,31.94
2022-09-09T16:12:29.490Z,32.05
2022-09-09T16:13:44.995Z,32.10
2022-09-09T16:14:57.055Z,32.17
2022-09-09T16:16:06.137Z,32.17
2022-09-09T16:17:13.211Z,32.16
2022-09-09T16:18:22.621Z,32.13
2022-09-09T16:19:34.442Z,32.10
2022-09-09T16:20:43.439Z,32.11
2022-09-09T16:21:53.364Z,32.12
2022-09-09T16:23:04.751Z,32.12
2022-09-09T16:24:23.343Z,32.11
2022-09-09T16:25:35.972Z,32.15
2022-09-09T16:26:48.969Z,32.15
2022-09-09T16:27:57.834Z,32.11
2022-09-09T16:29:05.262Z,32.07
2022-09-09T16:30:13.850Z,32.10
2022-09-09T16:31:25.590Z,32.14
2022-09-09T16:32:39.220Z,32.18
2022-09-09T16:34:05.277Z,32.23
2022-09-09T16:35:16.324Z,32.34
2022-09-09T16:36:30.372Z,32.42
2022-09-09T16:37:50.157Z,32.50
2022-09-09T16:39:12.622Z,32.51
2022-09-09T16:40:30.625Z,32.49
2022-09-09T16:41:47.933Z,32.48
2022-09-09T16:42:54.952Z,32.55
2022-09-09T16:44:04.149Z,32.65
2022-09-09T16:45:12.326Z,32.80
2022-09-09T16:46:23.456Z,32.96
2022-09-09T16:47:29.674Z,33.09
2022-09-09T16:48:35.719Z,33.15